Time;durP1;ratioP1;P1;durP2;ratioP2;P2;SDS_P1;SDS_P2;PMS_P1;PMS_P2;Temp;Humidity;BMP_temperature;BMP_pressure;BME280_temperature;BME280_humidity;BME280_pressure;Samples;Min_cycle;Max_cycle;Signal;HPM_P1;HPM_P2
2022/07/15 00:00:24;;;;;;;0.40;0.30;;;15.60;65.80;;;;;;5116784;28;20062;-79
2022/07/15 00:02:50;;;;;;;1.15;0.30;;;15.50;65.90;;;;;;5112685;28;20061;-76
2022/07/15 00:05:16;;;;;;;0.75;0.30;;;15.50;66.00;;;;;;5112920;28;20078;-78
2022/07/15 00:07:41;;;;;;;0.20;0.15;;;15.40;66.00;;;;;;5094852;28;20051;-78
2022/07/15 00:10:15;;;;;;;0.35;0.20;;;15.40;66.10;;;;;;5114485;28;20068;-77
2022/07/15 00:12:43;;;;;;;0.15;0.15;;;15.40;66.20;;;;;;5114926;28;20767;-77
2022/07/15 00:15:09;;;;;;;0.20;0.20;;;15.40;66.20;;;;;;5114748;28;20027;-78
2022/07/15 00:17:35;;;;;;;0.10;0.10;;;15.30;66.30;;;;;;5077578;28;20049;-77
2022/07/15 00:20:01;;;;;;;0.22;0.20;;;15.40;66.30;;;;;;5115416;28;20103;-78
2022/07/15 00:22:26;;;;;;;0.20;0.20;;;15.30;66.30;;;;;;5117216;28;20028;-78
2022/07/15 00:24:52;;;;;;;0.25;0.25;;;15.30;66.40;;;;;;5095299;28;20044;-78
2022/07/15 00:27:18;;;;;;;0.20;0.17;;;15.30;66.60;;;;;;5097936;28;20048;-78
2022/07/15 00:29:44;;;;;;;0.28;0.20;;;15.20;66.50;;;;;;5115007;28;20031;-78
2022/07/15 00:32:10;;;;;;;0.45;0.30;;;15.20;66.70;;;;;;5096532;28;20049;-78
2022/07/15 00:34:36;;;;;;;0.22;0.20;;;15.10;66.80;;;;;;5117505;28;20044;-78
2022/07/15 00:37:02;;;;;;;0.20;0.20;;;15.10;67.00;;;;;;5118093;28;20032;-77
2022/07/15 00:39:27;;;;;;;0.55;0.30;;;15.10;67.00;;;;;;5117062;28;20426;-77
2022/07/15 00:41:53;;;;;;;0.50;0.40;;;15.10;67.00;;;;;;5101041;28;20043;-78
2022/07/15 00:44:19;;;;;;;0.30;0.30;;;15.10;67.00;;;;;;5084553;28;20040;-78
2022/07/15 00:46:45;;;;;;;0.17;0.17;;;15.10;67.00;;;;;;5100502;28;20049;-77
2022/07/15 00:49:11;;;;;;;1.38;0.30;;;15.10;67.00;;;;;;5118204;28;20036;-77
2022/07/15 00:51:42;;;;;;;0.40;0.20;;;15.10;67.00;;;;;;5118105;28;20036;-77
2022/07/15 00:54:11;;;;;;;0.30;0.30;;;15.00;67.00;;;;;;5118572;28;20044;-78
2022/07/15 00:56:41;;;;;;;0.20;0.20;;;15.00;67.10;;;;;;5119075;28;20024;-78
2022/07/15 00:59:09;;;;;;;0.22;0.22;;;15.00;67.10;;;;;;5100706;28;20032;-77
2022/07/15 01:01:35;;;;;;;0.20;0.20;;;15.00;67.20;;;;;;5120224;28;20044;-77
2022/07/15 01:04:04;;;;;;;0.20;0.20;;;14.90;67.30;;;;;;5117996;28;20040;-78
2022/07/15 01:06:31;;;;;;;0.60;0.20;;;15.00;67.30;;;;;;5120120;28;20075;-78
2022/07/15 01:08:57;;;;;;;0.10;0.10;;;14.90;67.40;;;;;;5119273;28;20062;-78
2022/07/15 01:11:23;;;;;;;0.55;0.30;;;14.90;67.50;;;;;;5119335;28;20069;-78
2022/07/15 01:13:49;;;;;;;0.38;0.30;;;14.90;67.50;;;;;;5118838;28;20016;-78
2022/07/15 01:16:14;;;;;;;1.00;0.30;;;14.90;67.60;;;;;;5098067;28;20025;-78
2022/07/15 01:18:40;;;;;;;0.25;0.20;;;14.90;67.60;;;;;;5118081;28;20088;-78
2022/07/15 01:21:07;;;;;;;0.10;0.10;;;14.90;67.60;;;;;;5096938;28;20048;-78
2022/07/15 01:23:32;;;;;;;0.10;0.10;;;14.90;67.60;;;;;;5118601;28;20031;-78
2022/07/15 01:25:58;;;;;;;0.20;0.20;;;14.90;67.70;;;;;;5100759;28;20015;-78
2022/07/15 01:28:24;;;;;;;0.35;0.20;;;14.90;67.70;;;;;;5118675;28;20025;-78
2022/07/15 01:30:49;;;;;;;0.20;0.20;;;15.00;67.70;;;;;;5097550;28;20024;-78
2022/07/15 01:33:15;;;;;;;0.20;0.20;;;15.00;67.70;;;;;;5118009;28;20028;-79
2022/07/15 01:35:41;;;;;;;0.20;0.20;;;15.00;67.70;;;;;;5114014;28;20493;-78
2022/07/15 01:38:08;;;;;;;0.10;0.10;;;15.00;67.70;;;;;;5098221;28;20032;-78
2022/07/15 01:40:34;;;;;;;0.88;0.30;;;15.00;67.60;;;;;;5111782;28;20028;-78
2022/07/15 01:43:00;;;;;;;0.85;0.10;;;15.10;67.70;;;;;;5097553;28;20047;-78
2022/07/15 01:45:25;;;;;;;0.20;0.20;;;15.00;67.70;;;;;;5090878;28;20031;-79
2022/07/15 01:47:52;;;;;;;0.20;0.20;;;15.00;67.70;;;;;;5114436;28;20040;-77
2022/07/15 01:50:20;;;;;;;0.32;0.30;;;15.00;67.70;;;;;;5112821;28;20048;-77
2022/07/15 01:52:46;;;;;;;0.22;0.22;;;15.00;67.80;;;;;;5089880;28;20028;-80
2022/07/15 01:55:12;;;;;;;0.40;0.20;;;15.00;67.80;;;;;;5103233;28;20101;-80
2022/07/15 01:57:38;;;;;;;0.95;0.40;;;15.00;67.80;;;;;;5110358;28;20091;-79
2022/07/15 02:00:06;;;;;;;0.20;0.20;;;15.00;67.90;;;;;;5111100;28;20032;-79
2022/07/15 02:02:32;;;;;;;0.80;0.20;;;15.00;68.00;;;;;;5109590;28;20524;-77
2022/07/15 02:04:58;;;;;;;0.35;0.22;;;15.00;68.10;;;;;;5107237;28;20040;-80
2022/07/15 02:07:23;;;;;;;0.35;0.15;;;15.00;68.10;;;;;;5110406;28;20095;-79
2022/07/15 02:09:49;;;;;;;0.60;0.30;;;14.90;68.00;;;;;;5089695;28;20440;-79
2022/07/15 02:12:15;;;;;;;0.38;0.20;;;15.00;68.10;;;;;;5091115;28;20067;-77
2022/07/15 02:14:41;;;;;;;0.20;0.20;;;15.00;68.10;;;;;;5112201;28;20067;-77
2022/07/15 02:17:07;;;;;;;0.20;0.20;;;15.10;68.10;;;;;;5111121;28;20048;-77
2022/07/15 02:19:33;;;;;;;0.65;0.32;;;15.00;68.10;;;;;;5092110;28;20024;-78
2022/07/15 02:21:59;;;;;;;0.20;0.20;;;15.10;68.10;;;;;;5091495;28;20459;-78
2022/07/15 02:24:24;;;;;;;0.10;0.10;;;15.10;68.20;;;;;;5092832;28;20040;-78
2022/07/15 02:26:50;;;;;;;0.35;0.30;;;15.10;68.20;;;;;;5112796;28;20048;-78
2022/07/15 02:29:16;;;;;;;0.20;0.20;;;15.10;68.20;;;;;;5095956;28;20028;-78
2022/07/15 02:31:42;;;;;;;0.20;0.20;;;15.10;68.30;;;;;;5116265;28;20048;-78
2022/07/15 02:34:08;;;;;;;0.47;0.20;;;15.10;68.40;;;;;;5115149;28;20075;-78
2022/07/15 02:36:35;;;;;;;0.52;0.20;;;15.10;68.40;;;;;;5114201;28;20050;-78
2022/07/15 02:39:02;;;;;;;0.20;0.20;;;15.10;68.40;;;;;;5112372;28;20040;-78
2022/07/15 02:41:29;;;;;;;0.20;0.20;;;15.10;68.50;;;;;;5113774;28;20055;-78
2022/07/15 02:43:55;;;;;;;0.20;0.20;;;15.10;68.50;;;;;;5091760;28;20035;-78
2022/07/15 02:46:21;;;;;;;0.20;0.20;;;15.00;68.50;;;;;;5112590;28;20044;-78
2022/07/15 02:48:47;;;;;;;0.20;0.20;;;15.10;68.70;;;;;;5111222;28;20417;-78
2022/07/15 02:51:14;;;;;;;0.20;0.20;;;15.00;68.70;;;;;;5109287;28;20051;-78
2022/07/15 02:53:40;;;;;;;0.20;0.20;;;15.10;68.90;;;;;;5092533;28;20040;-78
2022/07/15 02:56:06;;;;;;;0.47;0.40;;;15.10;68.90;;;;;;5108326;28;20096;-77
2022/07/15 02:58:33;;;;;;;0.30;0.20;;;15.10;69.00;;;;;;5087475;28;20047;-78
2022/07/15 03:00:59;;;;;;;0.20;0.20;;;15.00;68.90;;;;;;5107329;28;20044;-78
2022/07/15 03:03:27;;;;;;;0.10;0.10;;;15.10;69.10;;;;;;5090509;28;20115;-78
2022/07/15 03:05:56;;;;;;;0.20;0.20;;;15.10;69.10;;;;;;5106050;28;20040;-78
2022/07/15 03:08:21;;;;;;;0.10;0.10;;;15.10;69.10;;;;;;5085978;28;20048;-78
2022/07/15 03:10:47;;;;;;;0.45;0.30;;;15.10;69.10;;;;;;5098672;28;20028;-78
2022/07/15 03:13:13;;;;;;;0.35;0.20;;;15.00;69.10;;;;;;5093671;28;20087;-78
2022/07/15 03:15:39;;;;;;;0.22;0.20;;;15.00;69.10;;;;;;5117051;28;20032;-79
2022/07/15 03:18:05;;;;;;;0.50;0.20;;;15.00;69.20;;;;;;5098889;28;20024;-78
2022/07/15 03:20:30;;;;;;;0.20;0.20;;;15.00;69.20;;;;;;5099020;28;20047;-78
2022/07/15 03:22:56;;;;;;;0.90;0.30;;;15.00;69.20;;;;;;5095877;28;20051;-78
2022/07/15 03:25:22;;;;;;;0.60;0.20;;;15.00;69.30;;;;;;5114986;28;20028;-78
2022/07/15 03:27:47;;;;;;;0.20;0.20;;;15.00;69.30;;;;;;5115505;28;20043;-78
2022/07/15 03:30:14;;;;;;;0.10;0.10;;;15.00;69.40;;;;;;5096773;28;20140;-78
2022/07/15 03:32:40;;;;;;;0.30;0.30;;;14.90;69.50;;;;;;5114198;28;20028;-77
2022/07/15 03:35:06;;;;;;;0.52;0.30;;;14.90;69.60;;;;;;5100824;28;20066;-77
2022/07/15 03:37:32;;;;;;;0.30;0.30;;;14.90;69.70;;;;;;5083811;28;20110;-78
2022/07/15 03:39:58;;;;;;;0.20;0.20;;;14.90;69.80;;;;;;5099729;28;20032;-78
2022/07/15 03:42:24;;;;;;;0.35;0.30;;;14.90;69.80;;;;;;5116701;28;20050;-78
2022/07/15 03:44:50;;;;;;;0.10;0.10;;;14.90;69.90;;;;;;5098438;28;20075;-78
2022/07/15 03:47:15;;;;;;;0.45;0.20;;;14.80;69.90;;;;;;5081209;28;20047;-78
2022/07/15 03:49:41;;;;;;;0.20;0.20;;;14.90;69.90;;;;;;5114847;28;20024;-78
2022/07/15 03:52:07;;;;;;;0.20;0.20;;;14.80;69.90;;;;;;5097267;28;20032;-77
2022/07/15 03:54:33;;;;;;;0.80;0.30;;;14.80;70.10;;;;;;5096334;28;20039;-78
2022/07/15 03:56:59;;;;;;;0.32;0.25;;;14.80;70.10;;;;;;5114945;28;20024;-78
2022/07/15 03:59:25;;;;;;;0.22;0.22;;;14.80;70.20;;;;;;5094484;28;20040;-78
2022/07/15 04:01:52;;;;;;;0.63;0.30;;;14.80;70.20;;;;;;5115023;28;20399;-78
2022/07/15 04:04:17;;;;;;;0.30;0.30;;;14.70;70.20;;;;;;5096886;28;20058;-78
2022/07/15 04:06:45;;;;;;;0.32;0.20;;;14.80;70.30;;;;;;5115183;28;20048;-77
2022/07/15 04:09:12;;;;;;;0.20;0.15;;;14.80;70.30;;;;;;5096683;28;20612;-78
2022/07/15 04:11:42;;;;;;;0.25;0.20;;;14.80;70.30;;;;;;5096377;28;20052;-78
2022/07/15 04:14:11;;;;;;;0.20;0.20;;;14.80;70.30;;;;;;5079197;28;20097;-78
2022/07/15 04:16:36;;;;;;;0.60;0.30;;;14.80;70.30;;;;;;5100878;28;20051;-80
2022/07/15 04:19:02;;;;;;;0.20;0.20;;;14.80;70.30;;;;;;5091833;28;20052;-79
2022/07/15 04:21:28;;;;;;;0.20;0.20;;;14.70;70.30;;;;;;5092632;28;20044;-79
2022/07/15 04:23:53;;;;;;;0.20;0.20;;;14.80;70.30;;;;;;5110510;28;20021;-79
2022/07/15 04:26:19;;;;;;;0.45;0.20;;;14.80;70.40;;;;;;5112644;28;20024;-78
2022/07/15 04:28:45;;;;;;;0.25;0.20;;;14.80;70.40;;;;;;5093383;28;20543;-79
2022/07/15 04:31:11;;;;;;;0.50;0.30;;;14.80;70.50;;;;;;5111946;28;20425;-79
2022/07/15 04:33:36;;;;;;;0.40;0.22;;;14.70;70.50;;;;;;5112540;28;20052;-79
2022/07/15 04:36:02;;;;;;;0.20;0.20;;;14.70;70.60;;;;;;5111485;28;20542;-79
2022/07/15 04:38:28;;;;;;;0.68;0.40;;;14.70;70.70;;;;;;5093732;28;20072;-79
2022/07/15 04:40:54;;;;;;;0.40;0.20;;;14.70;70.80;;;;;;5094440;28;20050;-78
2022/07/15 04:43:19;;;;;;;0.25;0.25;;;14.70;70.80;;;;;;5095568;28;20040;-78
2022/07/15 04:45:45;;;;;;;0.20;0.20;;;14.70;70.90;;;;;;5113815;28;20390;-78
2022/07/15 04:50:55;;;;;;;0.20;0.20;;;14.60;70.80;;;;;;5093546;28;20050;-78
2022/07/15 04:53:21;;;;;;;0.80;0.20;;;14.70;71.00;;;;;;5093198;28;20033;-78
2022/07/15 04:55:48;;;;;;;0.63;0.38;;;14.70;71.00;;;;;;5092621;28;20043;-79
2022/07/15 04:58:14;;;;;;;0.20;0.20;;;14.60;71.00;;;;;;5111415;28;20044;-78
2022/07/15 05:00:41;;;;;;;0.20;0.20;;;14.60;70.90;;;;;;5092218;28;20052;-78
2022/07/15 05:03:07;;;;;;;0.17;0.17;;;14.70;71.10;;;;;;5093792;28;20032;-78
2022/07/15 05:05:33;;;;;;;1.27;0.30;;;14.70;71.10;;;;;;5115778;28;20083;-78
2022/07/15 05:07:59;;;;;;;0.28;0.28;;;14.60;71.20;;;;;;5095821;28;20093;-78
2022/07/15 05:10:24;;;;;;;0.13;0.13;;;14.60;71.80;;;;;;5113452;28;20020;-78
2022/07/15 05:12:50;;;;;;;0.30;0.30;;;14.70;71.90;;;;;;5094276;28;20057;-78
2022/07/15 05:15:16;;;;;;;0.20;0.20;;;14.60;71.30;;;;;;5114183;28;20055;-77
2022/07/15 05:17:42;;;;;;;0.20;0.13;;;14.70;71.30;;;;;;5094970;28;20032;-79
2022/07/15 05:20:15;;;;;;;0.10;0.10;;;14.70;71.30;;;;;;5115102;28;20032;-78
2022/07/15 05:22:41;;;;;;;0.60;0.30;;;14.70;71.30;;;;;;5096452;28;20023;-78
2022/07/15 05:25:07;;;;;;;0.20;0.20;;;14.70;71.20;;;;;;5097396;28;20047;-78
2022/07/15 05:27:33;;;;;;;0.38;0.22;;;14.80;71.10;;;;;;5110582;28;20084;-79
2022/07/15 05:29:58;;;;;;;0.20;0.20;;;14.80;71.00;;;;;;5113372;28;20474;-78
2022/07/15 05:32:24;;;;;;;0.22;0.22;;;14.90;71.00;;;;;;5108364;28;20031;-78
2022/07/15 05:34:50;;;;;;;0.20;0.20;;;15.00;70.80;;;;;;5093178;28;20486;-79
2022/07/15 05:37:15;;;;;;;0.55;0.20;;;15.00;70.60;;;;;;5113306;28;20032;-78
2022/07/15 05:39:53;;;;;;;0.20;0.20;;;15.20;70.50;;;;;;5113027;28;20071;-78
2022/07/15 05:42:22;;;;;;;0.28;0.20;;;15.30;70.40;;;;;;5112708;28;20517;-78
2022/07/15 05:44:48;;;;;;;0.22;0.22;;;15.30;70.20;;;;;;5093488;28;20047;-79
2022/07/15 05:47:14;;;;;;;0.10;0.10;;;15.40;70.00;;;;;;5096692;28;20040;-79
2022/07/15 05:49:41;;;;;;;0.30;0.30;;;15.50;70.00;;;;;;5114936;28;20043;-78
2022/07/15 05:52:07;;;;;;;0.20;0.20;;;15.50;70.00;;;;;;5092831;28;20115;-79
2022/07/15 05:54:32;;;;;;;0.65;0.30;;;15.50;69.90;;;;;;5114512;28;20109;-78
2022/07/15 05:56:58;;;;;;;1.20;0.32;;;15.60;69.80;;;;;;5111424;28;20071;-79
2022/07/15 05:59:24;;;;;;;0.60;0.28;;;15.60;69.70;;;;;;5109543;28;20048;-79
2022/07/15 06:01:50;;;;;;;0.35;0.30;;;15.60;69.70;;;;;;5111742;28;20028;-79
2022/07/15 06:04:15;;;;;;;0.25;0.15;;;15.70;69.80;;;;;;5093042;28;20048;-78
2022/07/15 06:06:41;;;;;;;1.02;0.28;;;15.70;69.70;;;;;;5111728;28;20391;-79
2022/07/15 06:09:07;;;;;;;0.20;0.20;;;15.80;69.80;;;;;;5112954;28;20044;-78
2022/07/15 06:11:33;;;;;;;0.20;0.20;;;15.80;69.70;;;;;;5108517;28;20040;-79
2022/07/15 06:13:59;;;;;;;0.20;0.20;;;15.90;69.60;;;;;;5093889;28;20038;-78
2022/07/15 06:16:25;;;;;;;0.50;0.28;;;16.00;69.60;;;;;;5110255;28;20039;-78
2022/07/15 06:18:51;;;;;;;0.38;0.30;;;16.00;69.50;;;;;;5090896;28;20047;-78
2022/07/15 06:21:17;;;;;;;0.30;0.25;;;16.00;69.40;;;;;;5112745;28;20060;-79
2022/07/15 06:23:42;;;;;;;0.75;0.28;;;16.00;69.40;;;;;;5088114;28;20108;-79
2022/07/15 06:26:09;;;;;;;0.20;0.20;;;16.00;69.20;;;;;;5080354;28;20456;-78
2022/07/15 06:28:35;;;;;;;0.35;0.20;;;16.30;69.30;;;;;;5079945;28;20417;-78
2022/07/15 06:31:01;;;;;;;2.40;0.30;;;16.30;69.20;;;;;;5083738;28;20040;-78
2022/07/15 06:33:27;;;;;;;0.95;0.20;;;16.30;68.90;;;;;;5093602;28;20131;-77
2022/07/15 06:35:54;;;;;;;0.20;0.20;;;16.40;68.90;;;;;;5102533;28;20078;-77
2022/07/15 06:38:20;;;;;;;0.63;0.22;;;16.50;68.80;;;;;;5095105;28;20048;-77
2022/07/15 06:40:46;;;;;;;0.47;0.20;;;16.60;68.60;;;;;;5081857;28;20037;-77
2022/07/15 06:43:12;;;;;;;0.20;0.20;;;16.60;68.40;;;;;;5084358;28;20031;-78
2022/07/15 06:45:38;;;;;;;0.68;0.20;;;16.80;68.50;;;;;;5088968;28;20044;-79
2022/07/15 06:48:04;;;;;;;0.40;0.17;;;16.90;68.30;;;;;;5114460;28;20028;-78
2022/07/15 06:50:30;;;;;;;0.75;0.20;;;17.00;67.90;;;;;;5085654;28;20065;-78
2022/07/15 06:52:55;;;;;;;0.20;0.20;;;17.20;67.60;;;;;;5093755;28;20024;-77
2022/07/15 06:55:21;;;;;;;0.20;0.20;;;17.30;67.40;;;;;;5114144;28;20054;-78
2022/07/15 06:57:47;;;;;;;0.32;0.22;;;17.40;67.10;;;;;;5091589;28;20052;-78
2022/07/15 07:00:14;;;;;;;0.45;0.30;;;17.50;66.90;;;;;;5094059;28;20468;-78
2022/07/15 07:02:41;;;;;;;0.70;0.30;;;17.70;66.80;;;;;;5116001;28;20044;-77
2022/07/15 07:05:08;;;;;;;0.60;0.20;;;17.80;66.60;;;;;;5095797;28;20035;-78
2022/07/15 07:07:34;;;;;;;0.55;0.30;;;18.00;66.50;;;;;;5108718;28;20406;-77
2022/07/15 07:10:00;;;;;;;0.43;0.20;;;18.10;66.20;;;;;;5087461;28;20063;-77
2022/07/15 07:12:26;;;;;;;0.10;0.10;;;18.30;66.00;;;;;;5102038;28;20048;-77
2022/07/15 07:14:53;;;;;;;1.17;0.40;;;18.50;65.70;;;;;;5102697;28;20386;-77
2022/07/15 07:17:19;;;;;;;0.30;0.20;;;18.70;65.50;;;;;;5101948;28;20067;-77
2022/07/15 07:19:45;;;;;;;0.20;0.20;;;18.80;65.30;;;;;;5082762;28;20036;-76
2022/07/15 07:22:11;;;;;;;0.98;0.38;;;18.90;65.10;;;;;;5102621;28;20062;-77
2022/07/15 07:24:37;;;;;;;0.40;0.25;;;19.00;65.00;;;;;;5082639;28;20040;-76
2022/07/15 07:27:04;;;;;;;0.47;0.28;;;19.10;65.00;;;;;;5075665;28;20482;-77
2022/07/15 07:29:30;;;;;;;0.20;0.20;;;19.40;64.90;;;;;;5096993;28;20039;-77
2022/07/15 07:31:55;;;;;;;0.20;0.20;;;19.50;64.60;;;;;;5075196;28;20390;-76
2022/07/15 07:34:21;;;;;;;0.10;0.10;;;19.60;64.50;;;;;;5075135;28;20458;-77
2022/07/15 07:36:48;;;;;;;0.25;0.20;;;19.80;64.40;;;;;;5091407;28;20138;-76
2022/07/15 07:39:14;;;;;;;0.20;0.20;;;19.90;64.20;;;;;;5076176;28;20090;-76
2022/07/15 07:41:40;;;;;;;0.20;0.20;;;20.10;64.10;;;;;;5091158;28;20086;-76
2022/07/15 07:44:06;;;;;;;0.20;0.20;;;20.20;63.90;;;;;;5093402;28;20036;-76
2022/07/15 07:46:32;;;;;;;0.30;0.30;;;20.40;63.60;;;;;;5093142;28;20032;-76
2022/07/15 07:48:58;;;;;;;0.22;0.22;;;20.60;63.40;;;;;;5075899;28;20047;-76
2022/07/15 07:51:24;;;;;;;0.38;0.30;;;20.50;63.30;;;;;;5094896;28;20040;-77
2022/07/15 07:53:50;;;;;;;0.28;0.20;;;20.40;63.70;;;;;;5078614;28;20040;-76
2022/07/15 07:56:16;;;;;;;0.22;0.20;;;20.40;64.10;;;;;;5099915;28;20056;-77
2022/07/15 07:58:41;;;;;;;0.20;0.20;;;20.50;64.00;;;;;;5081110;28;20048;-76
2022/07/15 08:01:08;;;;;;;0.20;0.20;;;20.50;63.90;;;;;;5095503;28;20483;-76
2022/07/15 08:03:33;;;;;;;0.20;0.20;;;20.70;63.80;;;;;;5097428;28;20040;-77
2022/07/15 08:05:59;;;;;;;0.43;0.28;;;21.00;63.70;;;;;;5096563;28;20089;-77
2022/07/15 08:08:25;;;;;;;0.28;0.20;;;21.10;63.20;;;;;;5072441;28;20180;-77
2022/07/15 08:10:54;;;;;;;0.20;0.20;;;21.40;62.70;;;;;;5096178;28;20389;-76
2022/07/15 08:13:21;;;;;;;0.90;0.22;;;21.50;62.40;;;;;;5096342;28;20051;-77
2022/07/15 08:15:47;;;;;;;1.13;0.28;;;21.70;62.30;;;;;;5094092;28;21411;-76
2022/07/15 08:18:14;;;;;;;0.60;0.30;;;21.90;61.90;;;;;;5094316;28;20127;-76
2022/07/15 08:20:41;;;;;;;0.50;0.30;;;22.00;61.80;;;;;;5074351;28;20440;-76
2022/07/15 08:23:07;;;;;;;0.57;0.30;;;21.90;61.50;;;;;;5079468;28;20068;-76
2022/07/15 08:25:36;;;;;;;0.20;0.20;;;21.60;61.90;;;;;;5084688;28;20044;-77
2022/07/15 08:28:02;;;;;;;0.20;0.20;;;21.30;62.80;;;;;;5101824;28;20059;-75
2022/07/15 08:30:29;;;;;;;0.43;0.25;;;21.40;63.20;;;;;;5088512;28;20085;-76
2022/07/15 08:32:56;;;;;;;0.22;0.20;;;21.30;63.10;;;;;;5101017;28;20080;-76
2022/07/15 08:35:23;;;;;;;0.20;0.20;;;21.40;63.30;;;;;;5094491;28;20132;-76
2022/07/15 08:37:49;;;;;;;1.38;0.22;;;21.70;62.90;;;;;;5093807;28;20036;-76
2022/07/15 08:40:16;;;;;;;0.70;0.30;;;22.10;62.10;;;;;;5076413;28;20093;-76
2022/07/15 08:42:45;;;;;;;0.40;0.40;;;22.20;61.40;;;;;;5101876;28;20032;-76
2022/07/15 08:45:13;;;;;;;0.20;0.20;;;22.30;61.20;;;;;;5082006;28;20048;-73
2022/07/15 08:47:42;;;;;;;0.17;0.15;;;22.20;61.10;;;;;;5100077;28;20044;-75
2022/07/15 08:50:11;;;;;;;0.20;0.20;;;22.00;61.50;;;;;;5100722;28;20101;-76
2022/07/15 08:52:38;;;;;;;0.47;0.20;;;21.80;62.00;;;;;;5103357;28;20138;-76
2022/07/15 08:55:05;;;;;;;0.70;0.30;;;21.50;62.30;;;;;;5087928;28;20039;-76
2022/07/15 08:57:31;;;;;;;0.47;0.20;;;21.30;62.50;;;;;;5089306;28;20036;-75
2022/07/15 08:59:57;;;;;;;0.85;0.40;;;21.20;62.80;;;;;;5105856;28;20048;-75
2022/07/15 09:02:23;;;;;;;0.22;0.22;;;21.10;63.00;;;;;;5098118;28;20043;-75
2022/07/15 09:05:22;;;;;;;1.45;0.28;;;21.00;62.90;;;;;;5095337;28;20047;-76
2022/07/15 09:08:04;;;;;;;0.20;0.20;;;20.90;62.80;;;;;;5077652;28;20035;-76
2022/07/15 09:10:47;;;;;;;1.17;0.40;;;20.80;62.80;;;;;;5095554;28;20040;-76
2022/07/15 09:13:23;;;;;;;0.20;0.20;;;20.70;62.80;;;;;;5100637;28;20110;-76
2022/07/15 09:15:50;;;;;;;0.63;0.30;;;20.80;62.60;;;;;;5082732;28;20051;-76
2022/07/15 09:18:19;;;;;;;0.20;0.20;;;21.00;62.20;;;;;;5098597;28;20048;-76
2022/07/15 09:20:46;;;;;;;0.63;0.30;;;21.10;61.60;;;;;;5077811;28;20497;-76
2022/07/15 09:23:18;;;;;;;1.55;0.32;;;21.30;61.00;;;;;;5095235;28;20040;-73
2022/07/15 09:25:44;;;;;;;1.58;0.30;;;21.30;60.80;;;;;;5053532;28;20036;-76
2022/07/15 09:28:10;;;;;;;1.55;0.35;;;21.20;60.70;;;;;;5054247;28;20056;-76
2022/07/15 09:36:09;;;;;;;1.45;0.28;;;21.30;61.20;;;;;;5055881;28;20045;-75
2022/07/15 09:38:46;;;;;;;0.30;0.20;;;21.50;60.20;;;;;;5039600;28;20048;-75
2022/07/15 09:41:28;;;;;;;0.25;0.25;;;21.70;59.50;;;;;;5049489;28;20044;-76
2022/07/15 09:44:06;;;;;;;0.52;0.28;;;21.60;59.60;;;;;;5063976;28;20041;-76
2022/07/15 09:46:47;;;;;;;0.88;0.30;;;21.70;59.90;;;;;;5057164;28;20130;-75
2022/07/15 09:49:15;;;;;;;;;;;22.00;59.10;;;;;;5057056;28;20098;-75
2022/07/15 09:51:50;;;;;;;0.15;0.15;;;21.90;58.90;;;;;;5057809;28;19916;-75
2022/07/15 09:54:16;;;;;;;0.65;0.30;;;21.90;59.20;;;;;;5053800;28;20041;-75
2022/07/15 09:56:45;;;;;;;0.30;0.30;;;21.80;59.20;;;;;;5075173;28;20052;-76
2022/07/15 09:59:11;;;;;;;0.88;0.28;;;21.60;59.60;;;;;;5095739;28;20040;-76
2022/07/15 10:01:37;;;;;;;0.35;0.20;;;21.40;59.80;;;;;;5057776;28;20110;-76
2022/07/15 10:04:04;;;;;;;0.77;0.30;;;21.30;60.00;;;;;;5092716;28;20502;-76
2022/07/15 10:06:32;;;;;;;0.20;0.20;;;21.30;60.00;;;;;;5077785;28;20032;-76
2022/07/15 10:08:58;;;;;;;0.50;0.22;;;21.30;59.90;;;;;;5093231;28;20044;-76
2022/07/15 10:11:24;;;;;;;0.90;0.30;;;21.30;60.00;;;;;;5096465;28;20044;-77
2022/07/15 10:14:19;;;;;;;0.52;0.20;;;21.30;59.70;;;;;;5095590;28;20062;-77
2022/07/15 10:17:08;;;;;;;0.65;0.45;;;21.40;59.40;;;;;;5096290;28;20097;-76
2022/07/15 10:20:07;;;;;;;0.25;0.20;;;21.80;58.90;;;;;;5094981;28;20040;-76
2022/07/15 10:22:58;;;;;;;0.88;0.35;;;22.10;58.20;;;;;;5093525;28;20036;-76
2022/07/15 10:25:48;;;;;;;0.65;0.20;;;22.20;57.80;;;;;;5094354;28;20044;-75
2022/07/15 10:28:22;;;;;;;0.20;0.20;;;22.20;57.90;;;;;;5093514;28;20533;-75
2022/07/15 10:31:20;;;;;;;0.30;0.20;;;22.20;57.90;;;;;;5091915;28;20129;-75
2022/07/15 10:34:19;;;;;;;0.20;0.20;;;22.10;58.00;;;;;;5092822;28;20130;-75
2022/07/15 10:36:57;;;;;;;0.85;0.40;;;22.00;58.20;;;;;;5093280;28;20036;-75
2022/07/15 10:39:26;;;;;;;1.70;0.20;;;21.80;58.40;;;;;;5093257;28;20440;-75
2022/07/15 10:41:58;;;;;;;0.10;0.10;;;21.50;58.80;;;;;;5075922;28;20034;-75
2022/07/15 10:44:26;;;;;;;1.27;0.30;;;21.50;59.00;;;;;;5093606;28;20119;-75
2022/07/15 10:47:20;;;;;;;0.45;0.30;;;21.70;58.80;;;;;;5091541;28;20486;-75
2022/07/15 10:49:48;;;;;;;0.10;0.10;;;22.10;58.20;;;;;;5093480;28;20090;-75
2022/07/15 10:52:31;;;;;;;0.52;0.28;;;22.50;57.50;;;;;;5079651;28;20050;-76
2022/07/15 10:55:04;;;;;;;0.30;0.20;;;22.70;56.80;;;;;;5094496;28;20059;-75
2022/07/15 10:57:49;;;;;;;0.32;0.30;;;22.90;56.40;;;;;;5076208;28;20040;-76
2022/07/15 11:00:33;;;;;;;0.70;0.30;;;23.00;55.90;;;;;;5094586;28;20040;-75
2022/07/15 11:03:03;;;;;;;0.43;0.40;;;22.70;55.80;;;;;;5099314;28;20040;-76
2022/07/15 11:05:29;;;;;;;0.20;0.20;;;22.40;56.50;;;;;;5100680;28;20044;-76
2022/07/15 11:07:55;;;;;;;0.65;0.20;;;22.30;56.90;;;;;;5098053;28;20044;-76
2022/07/15 11:10:21;;;;;;;0.40;0.30;;;22.20;57.30;;;;;;5095928;28;20040;-76
2022/07/15 11:12:59;;;;;;;0.20;0.20;;;22.40;57.20;;;;;;5096252;28;20051;-75
2022/07/15 11:15:25;;;;;;;0.35;0.22;;;22.50;57.00;;;;;;5096075;28;20055;-76
2022/07/15 11:17:55;;;;;;;0.28;0.28;;;22.60;56.70;;;;;;5096166;28;20061;-76
2022/07/15 11:20:23;;;;;;;0.10;0.10;;;22.70;56.70;;;;;;5079053;28;20048;-75
2022/07/15 11:22:52;;;;;;;0.25;0.20;;;22.80;56.40;;;;;;5094940;28;20032;-75
2022/07/15 11:25:21;;;;;;;0.50;0.15;;;22.80;56.30;;;;;;5096053;28;20051;-76
2022/07/15 11:28:08;;;;;;;0.10;0.10;;;22.80;56.40;;;;;;5077504;28;20138;-76
2022/07/15 11:30:42;;;;;;;0.43;0.30;;;22.50;56.70;;;;;;5096026;28;20039;-75
2022/07/15 11:33:12;;;;;;;0.20;0.20;;;22.40;57.10;;;;;;5095728;28;20047;-75
2022/07/15 11:35:55;;;;;;;0.10;0.10;;;22.10;57.40;;;;;;5095698;28;20040;-76
2022/07/15 11:38:24;;;;;;;0.10;0.10;;;22.00;57.70;;;;;;5097363;28;20070;-76
2022/07/15 11:46:09;;;;;;;0.20;0.20;;;22.20;57.30;;;;;;5092769;28;20044;-75
2022/07/15 11:48:37;;;;;;;1.33;0.20;;;22.10;57.20;;;;;;5093291;28;20105;-76
2022/07/15 11:51:03;;;;;;;0.75;0.25;;;22.00;57.20;;;;;;5093391;28;20074;-75
2022/07/15 11:53:35;;;;;;;0.32;0.30;;;21.90;57.20;;;;;;5092937;28;20051;-75
2022/07/15 11:56:01;;;;;;;0.45;0.22;;;21.70;57.50;;;;;;5093545;28;20043;-75
2022/07/15 11:58:32;;;;;;;0.40;0.22;;;21.70;57.60;;;;;;5091487;28;20145;-75
2022/07/15 12:01:00;;;;;;;0.35;0.30;;;21.70;57.50;;;;;;5073883;28;20039;-75
2022/07/15 12:03:37;;;;;;;1.00;0.40;;;21.70;57.50;;;;;;5095002;28;20054;-75
2022/07/15 12:06:09;;;;;;;0.20;0.20;;;22.00;56.90;;;;;;5093573;28;20402;-75
2022/07/15 12:08:37;;;;;;;0.20;0.20;;;22.20;56.50;;;;;;5093602;28;20044;-76
2022/07/15 12:11:10;;;;;;;0.45;0.20;;;22.20;56.10;;;;;;5096570;28;20043;-76
2022/07/15 12:13:42;;;;;;;0.28;0.28;;;22.20;56.00;;;;;;5094978;28;20095;-76
2022/07/15 12:16:08;;;;;;;0.35;0.20;;;22.10;56.20;;;;;;5098815;28;20085;-76
2022/07/15 12:18:34;;;;;;;0.52;0.20;;;22.10;56.40;;;;;;5095437;28;20048;-76
2022/07/15 12:21:00;;;;;;;0.10;0.10;;;22.10;56.50;;;;;;5100255;28;20028;-76
2022/07/15 12:23:28;;;;;;;0.20;0.17;;;22.10;56.50;;;;;;5097624;28;20039;-76
2022/07/15 12:26:03;;;;;;;0.30;0.30;;;22.00;56.50;;;;;;5077479;28;20047;-76
2022/07/15 12:28:30;;;;;;;0.43;0.20;;;21.90;56.50;;;;;;5093458;28;20051;-76
2022/07/15 12:30:56;;;;;;;0.10;0.10;;;21.90;56.70;;;;;;5095756;28;20043;-76
2022/07/15 12:33:23;;;;;;;0.10;0.10;;;21.80;56.80;;;;;;5093868;28;20523;-76
2022/07/15 12:35:49;;;;;;;0.15;0.10;;;21.80;56.70;;;;;;5077155;28;20044;-76
2022/07/15 12:38:30;;;;;;;0.73;0.30;;;21.80;56.70;;;;;;5095409;28;20055;-76
2022/07/15 12:41:23;;;;;;;0.40;0.30;;;21.90;56.70;;;;;;5096109;28;20086;-76
2022/07/15 12:43:53;;;;;;;0.68;0.28;;;21.90;56.40;;;;;;5095164;28;20044;-76
2022/07/15 12:46:20;;;;;;;0.20;0.20;;;21.90;56.30;;;;;;5077245;28;20093;-76
2022/07/15 12:48:48;;;;;;;0.98;0.20;;;22.00;56.30;;;;;;5091274;28;20087;-76
2022/07/15 12:51:16;;;;;;;0.45;0.38;;;22.00;56.10;;;;;;5095339;28;20082;-73
2022/07/15 12:53:42;;;;;;;0.70;0.40;;;22.10;56.10;;;;;;5075078;28;20106;-74
2022/07/15 12:56:08;;;;;;;0.20;0.20;;;22.10;55.90;;;;;;5095643;28;20044;-76
2022/07/15 12:58:35;;;;;;;0.20;0.20;;;22.10;55.70;;;;;;5094908;28;20048;-76
2022/07/15 13:01:08;;;;;;;0.20;0.20;;;22.10;55.70;;;;;;5095114;28;20093;-76
2022/07/15 13:03:35;;;;;;;0.13;0.13;;;22.10;55.60;;;;;;5095268;28;20089;-76
2022/07/15 13:06:01;;;;;;;1.45;0.20;;;22.20;55.50;;;;;;5095150;28;20036;-75